Impacts TAF Board
For situational awareness. Not to be used for flight planning purposes.
IDs:

KEAT - Wenatchee/Pangborn M, WA, US

Issued at 1122 UTC 07 Jul 2020
Updated at 1347 UTC 07 Jul 2020
Potential Impact None Slight Moderate High
Time1255Z 07/14Z 07/15Z 07/16Z 07/17Z 07/18Z 07/19Z 07/20Z 07/21Z 07/22Z 07/23Z 08/00Z 08/01Z 08/02Z>>
Type OBS PRVL PRVL PRVL PRVL PRVL PRVL PRVL PRVL PRVL PRVL PRVL PRVL PRVL
VIS 10 >6 >6 >6 >6 >6 >6 >6 >6 >6 >6 >6 >6 >6
CIG -- -- -- -- -- -- -- -- -- -- -- -- -- --
Cover CLR SKC SKC SKC SKC FEW FEW FEW FEW FEW FEW FEW FEW FEW
FltCat VFR VFR VFR VFR VFR VFR VFR VFR VFR VFR VFR VFR VFR VFR
WX -- -- -- -- -- -- -- -- -- -- -- -- -- --
WDir 280 290 290 290 290 300 300 300 300 300 300 300 300 300
WSpd 12 11 11 11 11 18 18 18 18 18 18 18 23 23
WGst -- -- -- -- -- 27 27 27 27 27 27 27 29 29
Raw TAF
KEAT 071122Z 0712/0812 29011KT P6SM SKC
  FM071800 30018G27KT P6SM FEW060
  FM080100 30023G29KT P6SM FEW100
  FM080400 29016KT P6SM FEW150


Raw METAR
KEAT 071255Z AUTO 28012KT 10SM CLR 16/06 A2987 RMK AO2 SLP108 T01560056
KEAT 071155Z AUTO 29011KT 10SM CLR 16/06 A2986 RMK AO2 SLP104 T01560061 10194 20156 53012
KEAT 071055Z AUTO 29011KT 10SM CLR 17/06 A2985 RMK AO2 SLP100 T01670061

METAR Board
Radar Display
Forecast Discussion
For situational awareness. Not to be used for flight planning purposes.